Time;durP1;ratioP1;P1;durP2;ratioP2;P2;SDS_P1;SDS_P2;PMS_P1;PMS_P2;Temp;Humidity;BMP_temperature;BMP_pressure;BME280_temperature;BME280_humidity;BME280_pressure;Samples;Min_cycle;Max_cycle;Signal;HPM_P1;HPM_P2
2023/09/27 00:00:16;;;;;;;0.17;0.17;;;15.60;99.90;;;;;;5030603;28;20036;-87
2023/09/27 00:02:43;;;;;;;0.00;0.00;;;15.60;99.90;;;;;;5033813;28;20117;-87
2023/09/27 00:05:10;;;;;;;0.00;0.00;;;15.50;99.90;;;;;;5030249;28;20033;-85
2023/09/27 00:07:40;;;;;;;0.00;0.00;;;15.60;99.90;;;;;;5040010;28;20029;-87
2023/09/27 00:10:11;;;;;;;0.00;0.00;;;15.50;99.90;;;;;;5037885;28;20041;-87
2023/09/27 00:12:37;;;;;;;0.10;0.10;;;15.50;99.90;;;;;;5023272;28;20033;-84
2023/09/27 00:15:04;;;;;;;0.00;0.00;;;15.40;99.90;;;;;;5028375;28;20603;-88
2023/09/27 00:17:30;;;;;;;0.00;0.00;;;15.40;99.90;;;;;;5028957;28;20108;-87
2023/09/27 00:19:56;;;;;;;0.10;0.10;;;15.30;99.90;;;;;;5027351;28;20556;-86
2023/09/27 00:22:22;;;;;;;0.00;0.00;;;15.30;99.90;;;;;;5030507;28;20037;-86
2023/09/27 00:24:48;;;;;;;0.00;0.00;;;15.20;99.90;;;;;;5030679;28;20057;-88
2023/09/27 00:27:15;;;;;;;0.00;0.00;;;15.20;99.90;;;;;;5028135;28;20044;-85
2023/09/27 00:29:41;;;;;;;0.00;0.00;;;15.20;99.90;;;;;;5022660;28;20099;-85
2023/09/27 00:32:07;;;;;;;0.00;0.00;;;15.10;99.90;;;;;;5016248;28;20037;-84
2023/09/27 00:34:32;;;;;;;0.03;0.03;;;15.10;99.90;;;;;;5023202;28;20029;-84
2023/09/27 00:36:58;;;;;;;0.00;0.00;;;15.00;99.90;;;;;;5017564;28;20033;-84
2023/09/27 00:39:24;;;;;;;0.00;0.00;;;15.00;99.90;;;;;;5022271;28;20100;-85
2023/09/27 00:41:49;;;;;;;0.00;0.00;;;14.90;99.90;;;;;;5023813;28;20056;-85
2023/09/27 00:44:15;;;;;;;0.00;0.00;;;14.90;99.90;;;;;;5022306;28;20560;-85
2023/09/27 00:46:41;;;;;;;0.00;0.00;;;14.80;99.90;;;;;;5016860;28;20395;-88
2023/09/27 00:49:08;;;;;;;0.10;0.10;;;14.80;99.90;;;;;;5021559;28;20097;-87
2023/09/27 00:51:35;;;;;;;0.00;0.00;;;14.80;99.90;;;;;;5023811;28;20053;-84
2023/09/27 00:54:01;;;;;;;0.00;0.00;;;14.80;99.90;;;;;;5020539;28;20032;-84
2023/09/27 00:56:28;;;;;;;0.00;0.00;;;14.80;99.90;;;;;;5021696;28;20037;-86
2023/09/27 00:58:55;;;;;;;0.30;0.30;;;14.70;99.90;;;;;;5020941;28;20111;-86
2023/09/27 01:01:21;;;;;;;0.00;0.00;;;14.70;99.90;;;;;;5022822;28;20033;-85
2023/09/27 01:03:48;;;;;;;0.00;0.00;;;14.60;99.90;;;;;;5022581;28;20511;-86
2023/09/27 01:06:14;;;;;;;0.00;0.00;;;14.70;99.90;;;;;;5024283;28;20830;-85
2023/09/27 01:08:39;;;;;;;0.07;0.07;;;14.70;99.90;;;;;;5014704;28;20116;-85
2023/09/27 01:11:05;;;;;;;0.10;0.10;;;14.60;99.90;;;;;;5022803;28;20083;-85
2023/09/27 01:13:31;;;;;;;0.10;0.10;;;14.60;99.90;;;;;;5021887;28;20083;-84
2023/09/27 01:15:57;;;;;;;0.00;0.00;;;14.50;99.90;;;;;;5024668;28;20033;-87
2023/09/27 01:18:25;;;;;;;0.00;0.00;;;14.40;99.90;;;;;;5023214;28;20284;-87
2023/09/27 01:20:51;;;;;;;0.00;0.00;;;14.50;99.90;;;;;;5038099;28;20032;-87
2023/09/27 01:23:17;;;;;;;0.00;0.00;;;14.40;99.90;;;;;;5018984;28;20132;-87
2023/09/27 01:25:42;;;;;;;0.00;0.00;;;14.50;99.90;;;;;;5018528;28;20053;-86
2023/09/27 01:28:10;;;;;;;0.00;0.00;;;14.40;99.90;;;;;;5022575;28;20037;-87
2023/09/27 01:30:37;;;;;;;0.00;0.00;;;14.40;99.90;;;;;;5019519;28;20484;-86
2023/09/27 01:33:05;;;;;;;0.00;0.00;;;14.20;99.90;;;;;;5021665;28;20026;-85
2023/09/27 01:35:37;;;;;;;0.00;0.00;;;14.20;99.90;;;;;;5022552;28;20040;-86
2023/09/27 01:38:04;;;;;;;0.00;0.00;;;14.20;99.90;;;;;;5022363;28;20037;-86
2023/09/27 01:40:30;;;;;;;0.00;0.00;;;14.20;99.90;;;;;;5019171;28;20701;-85
2023/09/27 01:42:58;;;;;;;0.28;0.28;;;14.30;99.90;;;;;;5026215;28;20030;-84
2023/09/27 01:45:23;;;;;;;0.05;0.05;;;14.20;99.90;;;;;;5016231;28;20450;-85
2023/09/27 01:47:49;;;;;;;0.10;0.10;;;14.20;99.90;;;;;;5029379;28;20076;-84
2023/09/27 01:50:18;;;;;;;0.00;0.00;;;14.20;99.90;;;;;;5023110;28;20033;-85
2023/09/27 01:52:44;;;;;;;0.00;0.00;;;14.30;99.90;;;;;;5025073;28;20044;-85
2023/09/27 01:55:10;;;;;;;0.00;0.00;;;14.30;99.90;;;;;;5023772;28;20033;-87
2023/09/27 01:57:36;;;;;;;0.00;0.00;;;14.20;99.90;;;;;;5027503;28;20033;-85
2023/09/27 02:00:03;;;;;;;0.00;0.00;;;14.30;99.90;;;;;;5025697;28;20211;-85
2023/09/27 02:02:29;;;;;;;0.00;0.00;;;14.20;99.90;;;;;;5028599;28;20030;-85
2023/09/27 02:04:55;;;;;;;0.00;0.00;;;14.20;99.90;;;;;;5027298;28;20083;-88
2023/09/27 02:07:21;;;;;;;0.00;0.00;;;14.10;99.90;;;;;;5031220;28;20029;-90
2023/09/27 02:09:46;;;;;;;0.10;0.10;;;14.20;99.90;;;;;;5027046;28;20029;-91
2023/09/27 02:12:12;;;;;;;0.00;0.00;;;14.20;99.90;;;;;;5021560;28;20099;-87
2023/09/27 02:14:38;;;;;;;0.08;0.08;;;14.10;99.90;;;;;;5025756;28;20033;-88
2023/09/27 02:17:03;;;;;;;0.00;0.00;;;14.10;99.90;;;;;;5024933;28;20055;-88
2023/09/27 02:19:29;;;;;;;0.00;0.00;;;14.10;99.90;;;;;;5022546;28;20071;-87
2023/09/27 02:21:55;;;;;;;0.43;0.43;;;14.10;99.90;;;;;;5027387;28;20029;-86
2023/09/27 02:24:20;;;;;;;0.00;0.00;;;14.10;99.90;;;;;;5023814;28;20547;-88
2023/09/27 02:26:46;;;;;;;0.03;0.03;;;14.00;99.90;;;;;;5022524;28;20526;-87
2023/09/27 02:29:12;;;;;;;0.10;0.10;;;13.90;99.90;;;;;;5023845;28;20033;-86
2023/09/27 02:31:38;;;;;;;0.00;0.00;;;14.00;99.90;;;;;;5022994;28;20030;-88
2023/09/27 02:34:03;;;;;;;0.10;0.10;;;14.10;99.90;;;;;;5019293;28;20033;-87
2023/09/27 02:36:29;;;;;;;0.10;0.10;;;13.80;99.90;;;;;;5027053;28;20025;-87
2023/09/27 02:38:55;;;;;;;0.00;0.00;;;13.90;99.90;;;;;;5028395;28;20018;-87
2023/09/27 02:41:21;;;;;;;0.00;0.00;;;13.80;99.90;;;;;;5026663;28;20036;-89
2023/09/27 02:43:46;;;;;;;0.10;0.10;;;13.80;99.90;;;;;;5021625;28;20044;-88
2023/09/27 02:46:12;;;;;;;0.10;0.10;;;13.80;99.90;;;;;;5018393;28;20489;-84
2023/09/27 02:48:38;;;;;;;0.00;0.00;;;13.80;99.90;;;;;;5022736;28;20038;-86
2023/09/27 02:51:03;;;;;;;0.10;0.10;;;13.80;99.90;;;;;;5031340;28;20437;-85
2023/09/27 02:53:29;;;;;;;0.00;0.00;;;13.70;99.90;;;;;;5021130;28;20771;-85
2023/09/27 02:55:54;;;;;;;0.57;0.57;;;13.70;99.90;;;;;;5019215;28;20037;-84
2023/09/27 02:58:21;;;;;;;0.10;0.10;;;13.60;99.90;;;;;;5020187;28;20044;-84
2023/09/27 03:00:48;;;;;;;0.00;0.00;;;13.60;99.90;;;;;;5017834;28;20044;-84
2023/09/27 03:03:13;;;;;;;;;;;13.60;99.90;;;;;;5022363;28;20021;-83
2023/09/27 03:05:41;;;;;;;0.00;0.00;;;13.60;99.90;;;;;;5030824;28;19928;-85
2023/09/27 03:08:07;;;;;;;0.00;0.00;;;13.60;99.90;;;;;;5037247;28;20120;-82
2023/09/27 03:10:37;;;;;;;0.00;0.00;;;13.50;99.90;;;;;;5028007;28;20540;-85
2023/09/27 03:13:03;;;;;;;0.00;0.00;;;13.50;99.90;;;;;;5027704;28;20397;-84
2023/09/27 03:15:31;;;;;;;1.17;0.90;;;13.50;99.90;;;;;;5033607;28;20033;-86
2023/09/27 03:17:57;;;;;;;0.00;0.00;;;13.40;99.90;;;;;;5029523;28;20557;-85
2023/09/27 03:20:22;;;;;;;0.10;0.10;;;13.40;99.90;;;;;;5033831;28;20108;-84
2023/09/27 03:22:49;;;;;;;0.10;0.10;;;13.40;99.90;;;;;;5047336;28;20033;-83
2023/09/27 03:25:18;;;;;;;0.10;0.10;;;13.40;99.90;;;;;;5047967;28;20045;-85
2023/09/27 03:27:44;;;;;;;0.10;0.10;;;13.40;99.90;;;;;;5031477;28;20033;-89
2023/09/27 03:30:10;;;;;;;0.00;0.00;;;13.30;99.90;;;;;;5024622;28;20180;-90
2023/09/27 03:32:36;;;;;;;0.20;0.20;;;13.20;99.90;;;;;;5029362;28;20026;-85
2023/09/27 03:35:03;;;;;;;0.10;0.10;;;13.30;99.90;;;;;;5026642;28;20075;-85
2023/09/27 03:37:29;;;;;;;0.00;0.00;;;13.30;99.90;;;;;;5026605;28;20382;-87
2023/09/27 03:39:56;;;;;;;0.00;0.00;;;13.30;99.90;;;;;;5029754;28;20453;-88
2023/09/27 03:42:23;;;;;;;0.03;0.03;;;13.40;99.90;;;;;;5030422;28;20099;-88
2023/09/27 03:44:49;;;;;;;0.10;0.10;;;13.30;99.90;;;;;;5031329;28;20029;-86
2023/09/27 03:47:15;;;;;;;0.10;0.10;;;13.30;99.90;;;;;;5037091;28;20036;-86
2023/09/27 03:49:41;;;;;;;0.00;0.00;;;13.30;99.90;;;;;;5025982;28;20552;-87
2023/09/27 03:52:10;;;;;;;0.10;0.10;;;13.40;99.90;;;;;;5043396;28;20040;-86
2023/09/27 03:54:35;;;;;;;0.08;0.08;;;13.30;99.90;;;;;;5033780;28;20025;-87
2023/09/27 03:57:01;;;;;;;0.00;0.00;;;13.30;99.90;;;;;;5031251;28;20025;-89
2023/09/27 03:59:27;;;;;;;0.10;0.10;;;13.40;99.90;;;;;;5031385;28;20028;-87
2023/09/27 04:01:52;;;;;;;0.00;0.00;;;13.30;99.90;;;;;;5030594;28;20662;-88
2023/09/27 04:04:18;;;;;;;0.10;0.10;;;13.20;99.90;;;;;;5034043;28;20029;-87
2023/09/27 04:06:44;;;;;;;0.10;0.10;;;13.20;99.90;;;;;;5018442;28;20118;-84
2023/09/27 04:09:10;;;;;;;0.10;0.10;;;13.10;99.90;;;;;;5017005;28;20581;-85
2023/09/27 04:11:37;;;;;;;0.00;0.00;;;13.10;99.90;;;;;;5010378;28;20030;-85
2023/09/27 04:14:05;;;;;;;0.10;0.10;;;13.10;99.90;;;;;;5018335;28;20030;-84
2023/09/27 04:16:32;;;;;;;0.10;0.10;;;13.20;99.90;;;;;;5011049;28;20038;-84
2023/09/27 04:18:58;;;;;;;0.10;0.10;;;13.10;99.90;;;;;;5013851;28;20026;-81
2023/09/27 04:21:25;;;;;;;0.10;0.10;;;13.10;99.90;;;;;;5014854;28;20667;-82
2023/09/27 04:23:59;;;;;;;0.10;0.10;;;13.00;99.90;;;;;;5012737;28;20036;-83
2023/09/27 04:26:24;;;;;;;0.10;0.10;;;12.90;99.90;;;;;;5018064;28;20040;-83
2023/09/27 04:28:51;;;;;;;0.00;0.00;;;13.00;99.90;;;;;;5018576;28;20712;-86
2023/09/27 04:31:17;;;;;;;0.10;0.10;;;12.90;99.90;;;;;;5018135;28;20026;-82
2023/09/27 04:33:44;;;;;;;0.00;0.00;;;12.90;99.90;;;;;;5016240;28;20072;-83
2023/09/27 04:36:17;;;;;;;0.00;0.00;;;12.90;99.90;;;;;;5017503;28;20481;-85
2023/09/27 04:38:47;;;;;;;0.10;0.10;;;13.00;99.90;;;;;;5024249;28;20072;-85
2023/09/27 04:41:14;;;;;;;0.08;0.08;;;12.90;99.90;;;;;;5027711;28;20029;-88
2023/09/27 04:43:43;;;;;;;0.10;0.10;;;12.90;99.90;;;;;;5017044;28;20029;-88
2023/09/27 04:46:17;;;;;;;0.03;0.03;;;12.90;99.90;;;;;;5025517;28;20124;-88
2023/09/27 04:48:43;;;;;;;0.05;0.05;;;12.80;99.90;;;;;;5027232;28;20037;-88
2023/09/27 04:51:09;;;;;;;0.10;0.10;;;12.80;99.90;;;;;;5026232;28;20036;-86
2023/09/27 04:53:38;;;;;;;0.10;0.10;;;12.80;99.90;;;;;;5026010;28;20033;-86
2023/09/27 04:56:07;;;;;;;0.30;0.30;;;12.90;99.90;;;;;;5023859;28;20032;-84
2023/09/27 04:58:33;;;;;;;0.10;0.10;;;12.90;99.90;;;;;;5016478;28;20032;-84
2023/09/27 05:00:59;;;;;;;0.00;0.00;;;12.80;99.90;;;;;;5023470;28;20049;-88
2023/09/27 05:03:26;;;;;;;0.15;0.15;;;12.90;99.90;;;;;;5027552;28;20877;-90
2023/09/27 05:05:52;;;;;;;0.00;0.00;;;12.90;99.90;;;;;;5024260;28;20029;-91
2023/09/27 05:08:17;;;;;;;0.10;0.10;;;12.90;99.90;;;;;;5024320;28;20407;-90
2023/09/27 05:10:43;;;;;;;0.10;0.10;;;12.90;99.90;;;;;;5026208;28;20033;-90
2023/09/27 05:13:09;;;;;;;0.10;0.10;;;12.90;99.90;;;;;;5022527;28;20045;-89
2023/09/27 05:15:34;;;;;;;0.10;0.10;;;12.90;99.90;;;;;;5026338;28;20044;-90
2023/09/27 05:18:00;;;;;;;0.67;0.67;;;12.80;99.90;;;;;;5023495;28;20033;-89
2023/09/27 05:20:26;;;;;;;0.10;0.10;;;12.80;99.90;;;;;;5031550;28;20481;-89
2023/09/27 05:22:52;;;;;;;0.00;0.00;;;12.70;99.90;;;;;;5027670;28;20026;-89
2023/09/27 05:25:18;;;;;;;0.10;0.10;;;12.70;99.90;;;;;;5015800;28;20053;-91
2023/09/27 05:27:43;;;;;;;0.10;0.10;;;12.80;99.90;;;;;;5025104;28;20044;-90
2023/09/27 05:30:12;;;;;;;0.00;0.00;;;12.70;99.90;;;;;;5024788;28;20076;-90
2023/09/27 05:32:38;;;;;;;0.10;0.10;;;12.80;99.90;;;;;;5025155;28;20037;-85
2023/09/27 05:35:05;;;;;;;0.10;0.10;;;13.00;99.90;;;;;;5013919;28;20036;-88
2023/09/27 05:37:31;;;;;;;0.00;0.00;;;12.90;99.90;;;;;;5020466;28;20029;-87
2023/09/27 05:39:57;;;;;;;0.10;0.10;;;12.90;99.90;;;;;;5021775;28;20033;-89
2023/09/27 05:42:23;;;;;;;0.03;0.03;;;12.90;99.90;;;;;;5021101;28;20044;-89
2023/09/27 05:44:48;;;;;;;0.10;0.10;;;12.90;99.90;;;;;;5018779;28;20463;-88
2023/09/27 05:47:15;;;;;;;4.37;1.30;;;12.90;99.90;;;;;;5021810;28;20136;-87
2023/09/27 05:49:43;;;;;;;0.10;0.10;;;12.80;99.90;;;;;;5021582;28;20770;-85
2023/09/27 05:52:12;;;;;;;0.10;0.10;;;12.80;99.90;;;;;;5018112;28;20681;-83
2023/09/27 05:54:39;;;;;;;0.00;0.00;;;12.90;99.90;;;;;;5021764;28;20481;-84
2023/09/27 05:57:06;;;;;;;0.00;0.00;;;12.80;99.90;;;;;;5022886;28;20026;-84
2023/09/27 05:59:35;;;;;;;0.08;0.08;;;13.10;99.90;;;;;;5020412;28;20068;-84
2023/09/27 06:02:02;;;;;;;0.00;0.00;;;13.70;99.90;;;;;;5021604;28;20024;-83
2023/09/27 06:04:27;;;;;;;0.00;0.00;;;14.00;99.90;;;;;;5014206;28;20458;-84
2023/09/27 06:06:53;;;;;;;0.10;0.10;;;14.10;99.90;;;;;;5020294;28;20280;-86
2023/09/27 06:09:19;;;;;;;0.00;0.00;;;14.10;99.90;;;;;;5021677;28;20028;-85
2023/09/27 06:11:46;;;;;;;0.00;0.00;;;14.20;99.90;;;;;;5015274;28;20051;-84
2023/09/27 06:14:12;;;;;;;0.00;0.00;;;14.60;99.90;;;;;;5021837;28;20037;-88
2023/09/27 06:16:39;;;;;;;0.00;0.00;;;14.80;99.90;;;;;;5023771;28;20034;-87
2023/09/27 06:19:05;;;;;;;0.00;0.00;;;15.20;99.90;;;;;;5024499;28;20025;-87
2023/09/27 06:21:31;;;;;;;0.45;0.45;;;15.80;98.40;;;;;;5022859;28;20139;-87
2023/09/27 06:23:57;;;;;;;0.00;0.00;;;16.20;96.80;;;;;;5021874;28;20044;-86
2023/09/27 06:26:23;;;;;;;0.13;0.13;;;16.50;95.40;;;;;;5027739;28;20033;-87
2023/09/27 06:28:48;;;;;;;0.00;0.00;;;16.60;94.60;;;;;;5026916;28;20048;-87
2023/09/27 06:31:14;;;;;;;0.00;0.00;;;16.80;94.60;;;;;;5028543;28;20080;-89
2023/09/27 06:33:40;;;;;;;0.00;0.00;;;17.20;93.30;;;;;;5029380;28;20047;-88
2023/09/27 06:36:07;;;;;;;0.00;0.00;;;17.50;92.10;;;;;;5025868;28;20594;-89
2023/09/27 06:38:33;;;;;;;0.35;0.35;;;17.80;91.40;;;;;;5028526;28;20497;-90
2023/09/27 06:41:00;;;;;;;0.00;0.00;;;18.00;90.90;;;;;;5019475;28;20106;-89
2023/09/27 06:43:28;;;;;;;0.00;0.00;;;17.30;91.70;;;;;;5023821;28;20314;-89
2023/09/27 06:45:54;;;;;;;0.20;0.20;;;16.60;93.10;;;;;;5029091;28;20049;-89
2023/09/27 06:48:20;;;;;;;0.00;0.00;;;17.50;92.40;;;;;;5024303;28;20035;-89
2023/09/27 06:50:47;;;;;;;0.00;0.00;;;18.20;90.50;;;;;;5026004;28;20267;-88
2023/09/27 06:53:13;;;;;;;0.00;0.00;;;17.30;91.70;;;;;;5025242;28;20547;-87
2023/09/27 06:55:39;;;;;;;0.00;0.00;;;18.10;90.30;;;;;;5027544;28;20025;-88
2023/09/27 06:58:05;;;;;;;0.00;0.00;;;18.10;90.10;;;;;;5023554;28;20033;-87
2023/09/27 07:00:31;;;;;;;0.00;0.00;;;17.60;90.30;;;;;;5025263;28;20098;-88
2023/09/27 07:02:56;;;;;;;0.00;0.00;;;16.70;92.00;;;;;;5025913;28;20021;-89
2023/09/27 07:05:23;;;;;;;0.00;0.00;;;16.70;93.00;;;;;;5027237;28;20025;-88
2023/09/27 07:07:53;;;;;;;0.00;0.00;;;17.30;92.30;;;;;;5029133;28;20040;-89
2023/09/27 07:10:19;;;;;;;0.10;0.10;;;17.90;91.30;;;;;;5028150;28;20140;-88
2023/09/27 07:12:46;;;;;;;0.00;0.00;;;18.30;90.50;;;;;;5029731;28;20058;-89
2023/09/27 07:15:13;;;;;;;0.00;0.00;;;19.40;88.80;;;;;;5027115;28;20056;-88
2023/09/27 07:17:40;;;;;;;0.00;0.00;;;20.20;85.20;;;;;;5025619;28;20036;-88
2023/09/27 07:22:55;;;;;;;0.10;0.10;;;19.10;86.40;;;;;;5023876;28;20036;-88
2023/09/27 07:25:21;;;;;;;0.00;0.00;;;18.50;86.30;;;;;;5019436;28;20053;-87
2023/09/27 07:27:48;;;;;;;0.00;0.00;;;18.50;86.60;;;;;;5028968;28;20036;-86
2023/09/27 07:30:18;;;;;;;0.00;0.00;;;19.10;85.10;;;;;;5027850;28;20029;-88
2023/09/27 07:32:47;;;;;;;0.00;0.00;;;18.60;86.50;;;;;;5016003;28;20029;-88
2023/09/27 07:35:16;;;;;;;0.00;0.00;;;18.50;85.70;;;;;;5021693;28;20034;-88
2023/09/27 07:37:42;;;;;;;0.00;0.00;;;19.30;84.50;;;;;;5022284;28;20095;-88
2023/09/27 07:40:10;;;;;;;0.07;0.07;;;20.10;83.00;;;;;;5022982;28;20092;-89
2023/09/27 07:42:36;;;;;;;0.00;0.00;;;20.60;80.80;;;;;;5023000;28;20025;-90
2023/09/27 07:45:03;;;;;;;3.55;1.13;;;20.60;79.90;;;;;;5019268;28;20112;-89
2023/09/27 07:47:29;;;;;;;0.00;0.00;;;20.30;80.50;;;;;;5028050;28;20168;-88
2023/09/27 07:49:55;;;;;;;0.03;0.03;;;20.20;80.00;;;;;;5026358;28;20036;-87
2023/09/27 07:52:21;;;;;;;0.00;0.00;;;20.30;81.50;;;;;;5035901;28;20514;-90
2023/09/27 07:54:58;;;;;;;0.00;0.00;;;20.20;80.60;;;;;;5022708;28;20021;-88
2023/09/27 07:57:24;;;;;;;0.00;0.00;;;19.90;80.70;;;;;;5009880;28;20095;-88
2023/09/27 07:59:51;;;;;;;0.20;0.20;;;19.40;82.50;;;;;;5019543;28;20124;-88
2023/09/27 08:02:16;;;;;;;;;;;20.00;82.10;;;;;;5017120;28;20036;-88
2023/09/27 08:04:42;;;;;;;0.00;0.00;;;20.40;80.40;;;;;;5024908;28;19913;-88
2023/09/27 08:07:07;;;;;;;1.60;1.50;;;19.90;81.60;;;;;;5019577;28;20037;-88
2023/09/27 08:09:38;;;;;;;0.00;0.00;;;20.10;80.80;;;;;;5027111;28;20063;-88
2023/09/27 08:12:07;;;;;;;0.00;0.00;;;20.20;80.90;;;;;;5033029;28;20025;-88
2023/09/27 08:14:36;;;;;;;0.00;0.00;;;20.30;80.90;;;;;;5033011;28;20575;-89
2023/09/27 08:17:02;;;;;;;0.00;0.00;;;20.70;81.10;;;;;;5025567;28;20467;-90
2023/09/27 08:19:29;;;;;;;0.00;0.00;;;20.90;78.60;;;;;;5026934;28;20022;-88
2023/09/27 08:21:56;;;;;;;;;;;21.20;78.10;;;;;;5027846;28;20064;-88
2023/09/27 08:24:22;;;;;;;0.00;0.00;;;21.90;76.30;;;;;;5027520;28;19921;-88
2023/09/27 08:26:48;;;;;;;0.00;0.00;;;21.60;77.40;;;;;;5026289;28;20489;-88
2023/09/27 08:29:13;;;;;;;0.00;0.00;;;22.00;76.90;;;;;;5030290;28;20112;-89
2023/09/27 08:31:40;;;;;;;0.00;0.00;;;22.30;73.60;;;;;;5027518;28;20026;-88
2023/09/27 08:34:06;;;;;;;0.00;0.00;;;22.60;73.80;;;;;;5029095;28;20112;-88
2023/09/27 08:36:31;;;;;;;0.00;0.00;;;22.30;72.70;;;;;;5027959;28;20112;-89
2023/09/27 08:38:57;;;;;;;0.00;0.00;;;23.00;71.70;;;;;;5028892;28;20045;-88
2023/09/27 08:41:28;;;;;;;0.00;0.00;;;22.60;70.80;;;;;;5028887;28;20049;-89
2023/09/27 08:43:55;;;;;;;0.00;0.00;;;22.50;72.80;;;;;;5029680;28;20394;-88
2023/09/27 08:46:23;;;;;;;0.00;0.00;;;23.70;72.20;;;;;;5015045;28;20698;-88
2023/09/27 08:48:51;;;;;;;0.00;0.00;;;23.60;69.80;;;;;;5037975;28;20024;-88
2023/09/27 08:51:17;;;;;;;0.00;0.00;;;24.00;69.50;;;;;;5029322;28;20060;-88
2023/09/27 08:53:43;;;;;;;0.00;0.00;;;24.30;66.60;;;;;;5028067;28;20025;-89
2023/09/27 08:56:12;;;;;;;0.00;0.00;;;24.50;68.00;;;;;;5016308;28;20521;-89
2023/09/27 08:58:39;;;;;;;0.00;0.00;;;24.70;66.50;;;;;;5028369;28;20643;-88
2023/09/27 09:01:07;;;;;;;0.00;0.00;;;25.00;66.00;;;;;;5029638;28;20056;-89
2023/09/27 09:03:33;;;;;;;0.00;0.00;;;25.00;65.10;;;;;;5023896;28;20064;-89
2023/09/27 09:06:01;;;;;;;0.00;0.00;;;24.80;64.80;;;;;;5028770;28;20029;-88
2023/09/27 09:08:26;;;;;;;0.00;0.00;;;25.50;65.40;;;;;;5026110;28;20032;-88
2023/09/27 09:10:54;;;;;;;0.00;0.00;;;25.30;63.90;;;;;;5032617;28;20030;-88
2023/09/27 09:13:22;;;;;;;0.30;0.30;;;25.10;63.30;;;;;;5015706;28;20021;-87
2023/09/27 09:15:49;;;;;;;0.00;0.00;;;25.80;63.90;;;;;;5024230;28;20357;-89
2023/09/27 09:18:32;;;;;;;0.00;0.00;;;26.10;61.50;;;;;;5024946;28;20481;-88
2023/09/27 09:21:08;;;;;;;0.00;0.00;;;26.80;62.90;;;;;;5027356;28;20087;-88
2023/09/27 09:23:35;;;;;;;0.00;0.00;;;27.50;61.20;;;;;;5026409;28;20112;-89
2023/09/27 09:26:03;;;;;;;0.00;0.00;;;27.60;60.20;;;;;;5024459;28;20103;-90
2023/09/27 09:28:29;;;;;;;0.00;0.00;;;27.70;59.10;;;;;;5028121;28;20017;-89
2023/09/27 09:30:55;;;;;;;0.00;0.00;;;26.50;60.00;;;;;;5029637;28;20029;-90
2023/09/27 09:33:24;;;;;;;0.00;0.00;;;24.90;64.10;;;;;;5027548;28;20057;-90
2023/09/27 09:35:51;;;;;;;0.00;0.00;;;24.90;64.80;;;;;;5029863;28;20033;-89
2023/09/27 09:38:25;;;;;;;0.00;0.00;;;25.30;64.00;;;;;;5030608;28;20028;-88
2023/09/27 09:40:58;;;;;;;0.00;0.00;;;25.80;63.60;;;;;;5028062;28;20060;-91
2023/09/27 09:43:38;;;;;;;0.00;0.00;;;26.20;62.00;;;;;;5028723;28;20022;-88
2023/09/27 09:46:10;;;;;;;0.00;0.00;;;25.90;64.10;;;;;;5027991;28;20072;-88
2023/09/27 09:48:38;;;;;;;0.00;0.00;;;24.90;65.50;;;;;;5020920;28;20437;-88
2023/09/27 09:51:06;;;;;;;0.00;0.00;;;24.90;66.90;;;;;;5026921;28;20025;-89
2023/09/27 09:53:36;;;;;;;0.00;0.00;;;24.80;65.80;;;;;;5029210;28;20090;-89
2023/09/27 09:56:03;;;;;;;0.00;0.00;;;24.80;67.30;;;;;;5027369;28;20037;-90
2023/09/27 09:58:59;;;;;;;0.00;0.00;;;24.50;66.70;;;;;;5019127;28;20064;-89
2023/09/27 10:01:28;;;;;;;0.00;0.00;;;24.40;68.00;;;;;;5031932;28;20512;-89
2023/09/27 10:03:55;;;;;;;0.00;0.00;;;24.60;68.50;;;;;;5031162;28;20396;-89
2023/09/27 10:06:21;;;;;;;;;;;24.40;68.40;;;;;;5024802;28;20057;-89
2023/09/27 10:08:48;;;;;;;0.00;0.00;;;24.30;68.20;;;;;;5032320;28;19963;-89
2023/09/27 10:11:15;;;;;;;0.00;0.00;;;24.40;67.10;;;;;;5034252;28;20030;-89
2023/09/27 10:13:41;;;;;;;0.00;0.00;;;24.60;68.10;;;;;;5024053;28;20037;-90
2023/09/27 10:16:09;;;;;;;0.00;0.00;;;24.70;68.90;;;;;;5027394;28;20037;-87
2023/09/27 10:18:40;;;;;;;0.00;0.00;;;24.60;69.30;;;;;;5030274;28;20096;-88
2023/09/27 10:21:12;;;;;;;0.00;0.00;;;24.60;67.80;;;;;;5030882;28;20505;-89
2023/09/27 10:23:47;;;;;;;0.00;0.00;;;24.80;69.10;;;;;;5017132;28;20853;-89
2023/09/27 10:26:28;;;;;;;0.00;0.00;;;24.50;70.40;;;;;;5020714;28;20544;-88
2023/09/27 10:29:03;;;;;;;0.17;0.17;;;24.60;71.10;;;;;;5031181;28;20112;-90
2023/09/27 10:31:33;;;;;;;0.00;0.00;;;24.60;69.80;;;;;;5031027;28;20029;-89
2023/09/27 10:33:59;;;;;;;0.00;0.00;;;24.50;70.40;;;;;;5022189;28;20030;-89
2023/09/27 10:36:24;;;;;;;0.00;0.00;;;24.60;72.40;;;;;;5028505;28;20033;-88
2023/09/27 10:38:50;;;;;;;0.00;0.00;;;24.60;72.40;;;;;;5012244;28;20057;-89
2023/09/27 10:41:43;;;;;;;0.00;0.00;;;24.60;71.90;;;;;;5013411;28;20091;-89
2023/09/27 10:44:09;;;;;;;0.00;0.00;;;24.80;72.60;;;;;;5015473;28;20069;-89
2023/09/27 10:46:47;;;;;;;0.00;0.00;;;24.90;72.50;;;;;;5029610;28;20072;-89
2023/09/27 10:49:26;;;;;;;0.00;0.00;;;24.80;71.20;;;;;;5028719;28;20544;-88
2023/09/27 10:51:53;;;;;;;0.00;0.00;;;24.90;71.70;;;;;;5020290;28;20029;-88
2023/09/27 10:54:23;;;;;;;0.00;0.00;;;24.90;73.70;;;;;;5029302;28;20025;-90
2023/09/27 10:56:53;;;;;;;0.00;0.00;;;25.10;75.60;;;;;;5028033;28;20037;-90
2023/09/27 10:59:28;;;;;;;0.00;0.00;;;25.10;71.10;;;;;;5032295;28;20055;-89
2023/09/27 11:01:55;;;;;;;0.00;0.00;;;25.10;71.90;;;;;;5039174;28;20021;-89
2023/09/27 11:04:26;;;;;;;0.00;0.00;;;25.10;72.20;;;;;;5030986;28;20037;-89
2023/09/27 11:06:52;;;;;;;0.15;0.15;;;25.20;71.40;;;;;;5038126;28;20033;-90
2023/09/27 11:09:23;;;;;;;0.00;0.00;;;25.30;70.20;;;;;;5032076;28;20370;-89
2023/09/27 11:11:51;;;;;;;0.00;0.00;;;25.60;65.00;;;;;;5032266;28;20109;-90
2023/09/27 11:14:32;;;;;;;0.00;0.00;;;25.80;63.90;;;;;;5033442;28;20029;-91
2023/09/27 11:17:18;;;;;;;0.00;0.00;;;26.00;63.30;;;;;;5032518;28;20032;-93
2023/09/27 11:19:44;;;;;;;0.00;0.00;;;26.20;60.70;;;;;;5027291;28;20417;-90
2023/09/27 11:22:11;;;;;;;0.00;0.00;;;26.20;58.60;;;;;;5025951;28;20488;-91
2023/09/27 11:24:40;;;;;;;0.00;0.00;;;26.10;59.10;;;;;;5040061;28;20048;-89
2023/09/27 11:27:09;;;;;;;0.00;0.00;;;26.10;57.60;;;;;;5039637;28;20040;-89
2023/09/27 11:29:36;;;;;;;0.10;0.10;;;26.30;59.10;;;;;;5033792;28;20029;-89
2023/09/27 11:32:02;;;;;;;0.00;0.00;;;26.30;57.50;;;;;;5032695;28;20028;-92
2023/09/27 11:34:28;;;;;;;0.00;0.00;;;26.30;57.60;;;;;;5014029;28;20029;-92
2023/09/27 11:36:55;;;;;;;0.00;0.00;;;26.20;57.00;;;;;;5039951;28;20032;-90
2023/09/27 11:39:29;;;;;;;0.00;0.00;;;26.20;57.10;;;;;;5047492;28;20707;-89
2023/09/27 11:41:59;;;;;;;0.00;0.00;;;26.00;57.20;;;;;;5043663;28;20021;-90
2023/09/27 11:44:26;;;;;;;0.00;0.00;;;26.00;56.80;;;;;;5041432;28;20558;-90
2023/09/27 11:47:05;;;;;;;0.00;0.00;;;25.90;58.60;;;;;;5045492;28;20064;-90
2023/09/27 11:49:30;;;;;;;0.00;0.00;;;25.90;62.30;;;;;;5032540;28;20072;-90
2023/09/27 11:51:56;;;;;;;0.08;0.08;;;25.90;58.30;;;;;;5036391;28;20049;-91
2023/09/27 11:54:22;;;;;;;0.00;0.00;;;25.90;58.00;;;;;;5027449;28;20033;-91
2023/09/27 11:56:48;;;;;;;0.00;0.00;;;25.90;58.70;;;;;;5036601;28;20025;-92
2023/09/27 11:59:14;;;;;;;0.00;0.00;;;25.80;62.20;;;;;;5036843;28;20039;-91
2023/09/27 12:01:40;;;;;;;0.00;0.00;;;25.80;59.60;;;;;;5024914;28;20064;-91
2023/09/27 12:04:06;;;;;;;0.00;0.00;;;25.90;57.20;;;;;;5030339;28;20260;-92
2023/09/27 12:06:32;;;;;;;0.00;0.00;;;25.90;58.30;;;;;;5024911;28;20168;-91
2023/09/27 12:08:59;;;;;;;0.00;0.00;;;25.80;58.10;;;;;;5031802;28;20024;-91
2023/09/27 12:11:24;;;;;;;0.00;0.00;;;25.70;60.70;;;;;;5038107;28;20029;-92
2023/09/27 12:13:51;;;;;;;0.00;0.00;;;25.80;56.10;;;;;;5032142;28;20059;-92
2023/09/27 12:16:19;;;;;;;0.00;0.00;;;25.80;57.60;;;;;;5030186;28;20367;-92
2023/09/27 12:18:45;;;;;;;0.00;0.00;;;25.60;58.30;;;;;;5024496;28;20022;-92
2023/09/27 12:21:11;;;;;;;0.00;0.00;;;25.80;61.10;;;;;;5022532;28;20025;-92
2023/09/27 12:23:39;;;;;;;0.00;0.00;;;25.60;59.00;;;;;;5030194;28;20120;-92
2023/09/27 12:26:05;;;;;;;0.00;0.00;;;26.00;58.10;;;;;;5023280;28;20037;-92
2023/09/27 12:28:33;;;;;;;0.00;0.00;;;26.00;53.80;;;;;;5034113;28;20044;-91
2023/09/27 12:30:59;;;;;;;0.00;0.00;;;26.10;56.40;;;;;;5031040;28;20025;-91
2023/09/27 12:33:30;;;;;;;0.00;0.00;;;26.20;55.70;;;;;;5018320;28;20036;-91
2023/09/27 12:35:56;;;;;;;0.00;0.00;;;26.30;53.40;;;;;;5029428;28;20121;-91
2023/09/27 12:38:22;;;;;;;0.00;0.00;;;26.20;53.70;;;;;;5030970;28;20108;-91
2023/09/27 12:40:48;;;;;;;0.30;0.30;;;26.10;54.50;;;;;;5032464;28;20030;-92
2023/09/27 12:43:14;;;;;;;0.00;0.00;;;26.40;54.40;;;;;;5031893;28;20032;-90
2023/09/27 12:45:39;;;;;;;0.00;0.00;;;26.50;53.60;;;;;;5029639;28;20299;-90
2023/09/27 12:48:05;;;;;;;0.00;0.00;;;26.50;52.30;;;;;;5029046;28;20053;-91
2023/09/27 12:50:31;;;;;;;0.00;0.00;;;26.70;50.80;;;;;;5029791;28;20028;-92